Au Gres, Michigan
Current Conditions -  °F | °C
As of 2:14 PM on Thursday 30 Oct 2014 (Local Time) from KOSC Reporting Station
Drizzle Drizzle  
Wind Chill: 42°   Ceiling: 4400
Heat Index: 45°   Visibility: 10mi
Dew Point: 37°   Wind: 6mph
Humidity: 74%   Direction: 210°SSW
Pressure: 30.06"   Gusts: NA
Location:  44.05°N, 83.7°W
Report Text: KOSC 301814Z AUTO 21005KT 10SM -DZ SCT023 SCT031 OVC044 07/02 A3006 RMK AO2 T00710028
Loading
Personal Weather Stations






























Interactive Weather Map
Tropical Storm Tracking
New forecast layout! Learn more

10-Day Weather Forecast

Advertisements
Track Severe Weather on mobile